TJNR/NRR METAR and TAF weather

Enter ICAO airport designator
Station Type Date Time Source
TJNR METAR 2021/09/19 12:53 UTC NOAA

TJNR 191253Z AUTO 07007KT 10SM CLR 30/25 A2997 RMK AO2 SLP148 T03000250


Station Type Date Time Source
TJNR Decoded METAR 2021/09/19 12:53 UTC NOAA

ROOSEVELT ROADS PUERTO RICO, PR, United States (TJNR) 18-15N 65-38W 10M
Sep 19, 2021 - 08:53 AM EDT / 2021.09.19 1253 UTC
Wind: from the ENE (070 degrees) at 8 MPH (7 KT):0
Visibility: 10 mile(s):0
Sky conditions: clear
Temperature: 86.0 F (30.0 C)
Heat index: 96.8 F (36.0 C):1
Dew Point: 77.0 F (25.0 C)
Relative Humidity: 74%
Pressure (altimeter): 29.97 in. Hg (1014 hPa)
ob: TJNR 191253Z AUTO 07007KT 10SM CLR 30/25 A2997 RMK AO2 SLP148 T03000250
cycle: 13

Station Type Date Time Source
TJNR TAF UTC NOAA

Error!

Example: see airport list